• Join FlightAware (Why Join?)
  • Login
  • US Flag 
09:13PM EDT


 

Airport Tracker/Info


-or-


 

Live Flight TrackerFlight Track Log ✈ KAP927 ✈ 22-May-2013 ✈ KOGS - KALB

Flight Track Log - Related Links

Times and Time Zones

All times are in EDT time to prevent confusion due to time zone crossing. See the KAP927 flight status page for this flight to view local times or setup timezone preferences in your user account.

Time Position Orientation Groundspeed Altitude Reporting Facility
EDT Latitude Longitude Course Direction KTS MPH feet Rate Location/Type
05:48PM 44.4692 -75.3172 154° Southeast 156 180 4,200  Level Boston Center
05:49PM 44.4389 -75.2808 139° Southeast 156 180 4,600 360 Climbing Boston Center
05:50PM 44.4083 -75.2503 144° Southeast 142 163 5,000 420 Climbing Boston Center
05:51PM 44.3756 -75.2225 149° Southeast 137 158 5,500 480 Climbing Boston Center
05:53PM 44.4902 -75.2947 149° Southeast  Level Estimated
05:53PM 44.3347 -75.1858 147° Southeast 137 158 6,100  Level Boston Center
05:54PM 44.3022 -75.1583 149° Southeast 137 158 6,500 360 Climbing Boston Center
05:55PM 44.2675 -75.1219 143° Southeast 142 163 6,900 240 Climbing Boston Center
05:56PM 44.2308 -75.0914 149° Southeast 142 163 7,000  Climbing Boston Center
05:57PM 44.1981 -75.0636 149° Southeast 153 176 7,000  Level Boston Center
05:58PM 44.1508 -75.0269 151° Southeast 160 184 7,000  Level Boston Center
05:59PM 44.1122 -74.9933 148° Southeast 160 184 7,000  Level Boston Center
06:00PM 44.0653 -74.9481 145° Southeast 160 184 7,000  Level Boston Center
06:01PM 44.0283 -74.9147 147° Southeast 165 190 7,000  Level Boston Center
06:02PM 43.9897 -74.8756 144° Southeast 165 190 7,000  Level Boston Center
06:03PM 43.9508 -74.8422 148° Southeast 165 190 7,000  Level Boston Center
06:04PM 43.9119 -74.8061 146° Southeast 165 190 7,000  Level Boston Center
06:05PM 43.8731 -74.7731 148° Southeast 165 190 7,000  Level Boston Center
06:06PM 43.8342 -74.7369 146° Southeast 165 190 7,000  Level Boston Center
06:07PM 43.7953 -74.7039 148° Southeast 165 190 7,000  Level Boston Center
06:08PM 43.7561 -74.6706 148° Southeast 165 190 7,000  Level Boston Center
06:09PM 43.7172 -74.6406 151° Southeast 165 190 7,000  Level Boston Center
06:10PM 43.6739 -74.6103 153° Southeast 165 190 7,000  Level Boston Center
06:11PM 43.6350 -74.5744 146° Southeast 165 190 7,000  Level Boston Center
06:12PM 43.5961 -74.5386 146° Southeast 165 190 7,000  Level Boston Center
06:13PM 43.5572 -74.5000 144° Southeast 165 190 7,000 60 Level Boston Center
06:13PM 43.5489 -74.4942 153° Southeast 172 198 7,100 60 Climbing Boston Center
06:14PM 43.5244 -74.4703 145° Southeast 175 201 7,100  Level Boston Center
06:15PM 43.4792 -74.4344 150° Southeast 175 201 7,100 -60 Level Boston Center
06:16PM 43.4403 -74.3989 146° Southeast 179 206 7,000 -60 Descending Boston Center
06:17PM 43.3992 -74.3603 146° Southeast 176 203 7,000  Level Boston Center
06:18PM 43.3581 -74.3247 148° Southeast 171 197 7,000  Level Boston Center
06:19PM 43.3169 -74.2864 146° Southeast 172 198 7,000 -60 Level Boston Center
06:20PM 43.2781 -74.2539 149° Southeast 166 191 6,900 -420 Descending Boston Center
06:21PM 43.2392 -74.2072 139° Southeast 199 229 6,300 -600 Descending Boston Center
06:22PM 43.1919 -74.1517 139° Southeast 203 234 5,700 -600 Descending Boston Center
06:23PM 43.1553 -74.0964 132° Southeast 199 229 5,100 -540 Descending Boston Center
06:24PM 43.1164 -74.0472 137° Southeast 195 224 4,700 -480 Descending Boston Center
06:25PM 43.0775 -74.0006 139° Southeast 192 221 4,200 -540 Descending Boston Center
06:26PM 43.0364 -73.9483 137° Southeast 185 213 3,700 -540 Descending Boston Center
06:27PM 43.0036 -73.9108 140° Southeast 185 213 3,200 -600 Descending Boston Center
06:28PM 42.9647 -73.8586 135° Southeast 179 206 2,600 -540 Descending Boston Center
06:29PM 42.9319 -73.8211 140° Southeast 160 184 2,200 -360 Descending Boston Center
06:30PM 42.8944 -73.8117 170° South 141 162 1,900 -240 Descending Boston Center
06:31PM 42.8589 -73.8139 183° South 120 138 1,800 -180 Descending Boston Center
06:32PM 42.8194 -73.8100 176° South 132 152 1,600 -540 Descending Boston Center
06:33PM 42.7839 -73.8064 176° South 127 146 800 -840 Descending Boston Center
06:35PM 42.7491 -73.8020 160° South  Level Estimated